createdAt,value
2019-05-21T00:02:26.629Z,12.20
2019-05-21T00:04:54.065Z,12.00
2019-05-21T00:07:21.458Z,11.90
2019-05-21T00:09:48.858Z,11.90
2019-05-21T00:12:16.517Z,11.90
2019-05-21T00:14:43.919Z,11.80
2019-05-21T00:17:13.277Z,11.90
2019-05-21T00:19:40.584Z,11.90
2019-05-21T00:22:07.986Z,12.00
2019-05-21T00:24:35.810Z,12.00
2019-05-21T00:27:03.850Z,12.00
2019-05-21T00:30:08.362Z,12.00
2019-05-21T00:33:12.739Z,12.00
2019-05-21T00:36:17.411Z,11.90
2019-05-21T00:39:21.859Z,11.80
2019-05-21T00:42:01.210Z,11.80
2019-05-21T00:44:31.137Z,11.80
2019-05-21T00:46:58.547Z,11.70
2019-05-21T00:49:25.942Z,11.70
2019-05-21T00:52:06.468Z,11.70
2019-05-21T00:54:22.590Z,11.70
2019-05-21T00:56:50.008Z,11.70
2019-05-21T00:59:17.447Z,11.70
2019-05-21T01:01:44.857Z,11.70
2019-05-21T01:04:12.334Z,11.70
2019-05-21T01:06:40.272Z,11.70
2019-05-21T01:09:07.666Z,11.70
2019-05-21T01:11:35.059Z,11.60
2019-05-21T01:14:02.512Z,11.60
2019-05-21T01:16:29.915Z,11.60
2019-05-21T01:18:57.308Z,11.70
2019-05-21T01:21:24.993Z,11.80
2019-05-21T01:23:52.658Z,11.80
2019-05-21T01:26:20.327Z,11.80
2019-05-21T01:28:48.092Z,11.80
2019-05-21T01:31:15.496Z,11.80
2019-05-21T01:33:42.892Z,11.80
2019-05-21T01:36:10.470Z,11.70
2019-05-21T01:38:37.876Z,11.70
2019-05-21T01:41:05.266Z,11.70
2019-05-21T01:43:32.704Z,11.70
2019-05-21T01:46:00.091Z,11.70
2019-05-21T01:48:27.498Z,11.70
2019-05-21T01:50:55.275Z,11.70
2019-05-21T01:53:22.674Z,11.80
2019-05-21T01:55:52.008Z,11.80
2019-05-21T01:58:19.691Z,11.70
2019-05-21T02:00:47.071Z,11.60
2019-05-21T02:03:14.478Z,11.70
2019-05-21T02:05:41.898Z,11.70
2019-05-21T02:08:09.298Z,11.80
2019-05-21T02:10:36.682Z,11.80
2019-05-21T02:13:04.367Z,11.80
2019-05-21T02:15:31.747Z,11.80
2019-05-21T02:17:59.151Z,11.70
2019-05-21T02:20:26.648Z,11.70
2019-05-21T02:22:54.046Z,11.70
2019-05-21T02:25:21.680Z,11.70
2019-05-21T02:27:49.648Z,11.80
2019-05-21T02:30:17.272Z,11.80
2019-05-21T02:32:44.671Z,11.80
2019-05-21T02:35:12.211Z,11.70
2019-05-21T02:37:39.612Z,11.70
2019-05-21T02:40:07.408Z,11.80
2019-05-21T02:42:35.035Z,11.70
2019-05-21T02:45:02.435Z,11.60
2019-05-21T02:47:29.830Z,11.60
2019-05-21T02:49:57.720Z,11.70
2019-05-21T02:52:25.111Z,11.70
2019-05-21T02:54:52.547Z,11.70
2019-05-21T02:57:20.125Z,11.70
2019-05-21T02:59:49.317Z,11.60
2019-05-21T03:02:27.016Z,11.60
2019-05-21T03:04:54.413Z,11.70
2019-05-21T03:07:25.241Z,11.70
2019-05-21T03:09:51.137Z,11.70
2019-05-21T03:12:18.731Z,11.60
2019-05-21T03:14:46.161Z,11.60
2019-05-21T03:17:14.252Z,11.60
2019-05-21T03:19:41.652Z,11.60
2019-05-21T03:22:09.071Z,11.60
2019-05-21T03:24:36.502Z,11.60
2019-05-21T03:27:04.390Z,11.60
2019-05-21T03:29:32.194Z,11.60
2019-05-21T03:31:59.652Z,11.70
2019-05-21T03:34:27.062Z,11.70
2019-05-21T03:36:54.646Z,11.60
2019-05-21T03:39:22.085Z,11.60
2019-05-21T03:41:49.779Z,11.50
2019-05-21T03:44:17.171Z,11.50
2019-05-21T03:46:44.581Z,11.40
2019-05-21T03:49:11.975Z,11.40
2019-05-21T03:51:39.668Z,11.50
2019-05-21T03:54:07.301Z,11.50
2019-05-21T03:56:34.899Z,11.40
2019-05-21T03:59:02.311Z,11.50
2019-05-21T04:01:29.892Z,11.50
2019-05-21T04:03:57.288Z,11.50
2019-05-21T04:06:28.745Z,11.50
2019-05-21T04:08:53.894Z,11.50
2019-05-21T04:11:21.296Z,11.50
2019-05-21T04:13:48.740Z,11.50
2019-05-21T04:16:25.249Z,11.50
2019-05-21T04:19:02.192Z,11.60
2019-05-21T04:21:29.639Z,11.50
2019-05-21T04:23:57.052Z,11.60
2019-05-21T04:26:24.699Z,11.60
2019-05-21T04:28:53.496Z,11.60
2019-05-21T04:31:20.979Z,11.60
2019-05-21T04:33:48.377Z,11.70
2019-05-21T04:36:15.887Z,11.70
2019-05-21T04:38:43.286Z,11.60
2019-05-21T04:41:10.697Z,11.60
2019-05-21T04:43:38.122Z,11.70
2019-05-21T04:46:05.528Z,11.70
2019-05-21T04:48:32.937Z,11.60
2019-05-21T04:51:00.519Z,11.70
2019-05-21T04:53:27.938Z,11.70
2019-05-21T04:55:55.334Z,11.60
2019-05-21T04:58:22.777Z,11.60
2019-05-21T05:00:50.187Z,11.60
2019-05-21T05:03:17.583Z,11.60
2019-05-21T05:05:45.166Z,11.60
2019-05-21T05:08:12.561Z,11.70
2019-05-21T05:10:39.963Z,11.70
2019-05-21T05:13:07.417Z,11.70
2019-05-21T05:15:34.810Z,11.80
2019-05-21T05:18:02.326Z,11.90
2019-05-21T05:20:29.752Z,11.90
2019-05-21T05:22:57.156Z,11.80
2019-05-21T05:25:24.640Z,11.80
2019-05-21T05:27:52.534Z,11.80
2019-05-21T05:30:20.036Z,11.80
2019-05-21T05:32:47.427Z,11.90
2019-05-21T05:35:16.991Z,11.90
2019-05-21T05:37:48.355Z,11.90
2019-05-21T05:40:14.735Z,11.90
2019-05-21T05:42:42.472Z,11.90
2019-05-21T05:45:10.386Z,11.90
2019-05-21T05:47:37.870Z,11.90
2019-05-21T05:50:07.453Z,12.00
2019-05-21T05:52:34.849Z,12.00
2019-05-21T05:55:02.302Z,12.10
2019-05-21T05:57:29.882Z,12.10
2019-05-21T05:59:57.283Z,12.10
2019-05-21T06:02:24.683Z,12.20
2019-05-21T06:04:52.270Z,12.30
2019-05-21T06:07:19.671Z,12.20
2019-05-21T06:09:47.081Z,12.20
2019-05-21T06:12:14.554Z,12.30
2019-05-21T06:14:41.954Z,12.40
2019-05-21T06:17:09.360Z,12.40
2019-05-21T06:19:36.942Z,12.40
2019-05-21T06:22:04.338Z,12.50
2019-05-21T06:24:31.747Z,12.60
2019-05-21T06:26:59.210Z,12.50
2019-05-21T06:29:27.311Z,12.70
2019-05-21T06:31:54.736Z,12.60
2019-05-21T06:34:22.253Z,12.70
2019-05-21T06:36:49.600Z,12.70
2019-05-21T06:39:16.874Z,12.80
2019-05-21T06:41:44.520Z,12.90
2019-05-21T06:44:13.062Z,13.00
2019-05-21T06:46:42.305Z,13.10
2019-05-21T06:49:09.766Z,13.00
2019-05-21T06:51:37.174Z,13.00
2019-05-21T06:54:04.609Z,13.00
2019-05-21T06:56:32.363Z,13.10
2019-05-21T06:58:59.814Z,12.90
2019-05-21T07:01:29.241Z,12.90
2019-05-21T07:03:56.421Z,12.90
2019-05-21T07:06:23.820Z,13.00
2019-05-21T07:08:51.209Z,13.00
2019-05-21T07:11:18.651Z,13.00
2019-05-21T07:13:46.059Z,13.00
2019-05-21T07:16:13.469Z,13.00
2019-05-21T07:18:41.638Z,13.00
2019-05-21T07:21:09.224Z,13.10
2019-05-21T07:23:36.616Z,13.20
2019-05-21T07:26:04.058Z,13.20
2019-05-21T07:28:31.987Z,13.30
2019-05-21T07:30:59.373Z,13.30
2019-05-21T07:33:27.050Z,13.30
2019-05-21T07:35:54.442Z,13.20
2019-05-21T07:38:21.849Z,13.10
2019-05-21T07:40:49.332Z,13.00
2019-05-21T07:43:16.734Z,13.00
2019-05-21T07:45:44.202Z,13.00
2019-05-21T07:48:12.039Z,13.00
2019-05-21T07:50:39.440Z,13.00
2019-05-21T07:53:06.847Z,13.00
2019-05-21T07:55:34.661Z,13.00
2019-05-21T07:58:02.330Z,13.00
2019-05-21T08:00:29.725Z,13.10
2019-05-21T08:02:57.187Z,13.20
2019-05-21T08:05:24.583Z,13.30
2019-05-21T08:07:51.978Z,13.30
2019-05-21T08:10:19.466Z,13.40
2019-05-21T08:12:46.861Z,13.50
2019-05-21T08:15:14.672Z,13.60
2019-05-21T08:17:42.314Z,13.70
2019-05-21T08:20:11.144Z,13.80
2019-05-21T08:22:38.643Z,13.70
2019-05-21T08:25:06.529Z,13.80
2019-05-21T08:27:34.109Z,13.90
2019-05-21T08:30:01.795Z,14.00
2019-05-21T08:32:29.255Z,14.00
2019-05-21T08:34:56.648Z,14.00
2019-05-21T08:37:24.038Z,14.00
2019-05-21T08:39:51.511Z,14.10
2019-05-21T08:42:18.915Z,14.20
2019-05-21T08:44:47.234Z,14.20
2019-05-21T08:47:14.978Z,14.20
2019-05-21T08:49:44.302Z,14.30
2019-05-21T08:52:11.567Z,14.30
2019-05-21T08:54:51.094Z,14.40
2019-05-21T08:57:19.050Z,14.50
2019-05-21T08:59:46.412Z,14.50
2019-05-21T09:02:13.949Z,14.50
2019-05-21T09:04:46.161Z,14.60
2019-05-21T09:07:10.652Z,14.60
2019-05-21T09:09:49.129Z,14.60
2019-05-21T09:12:07.759Z,14.60
2019-05-21T09:14:35.212Z,14.70
2019-05-21T09:17:02.674Z,14.80
2019-05-21T09:19:30.047Z,14.90
2019-05-21T09:21:57.448Z,14.90
2019-05-21T09:24:24.964Z,14.90
2019-05-21T09:26:52.460Z,14.80
2019-05-21T09:29:20.149Z,14.90
2019-05-21T09:31:47.567Z,15.20
2019-05-21T09:34:15.018Z,15.20
2019-05-21T09:36:42.375Z,15.30
2019-05-21T09:39:09.823Z,15.30
2019-05-21T09:41:37.226Z,15.30
2019-05-21T09:44:04.614Z,15.50
2019-05-21T09:46:32.277Z,15.50
2019-05-21T09:48:59.675Z,15.50
2019-05-21T09:51:27.075Z,15.70
2019-05-21T09:53:54.893Z,15.70
2019-05-21T09:56:35.586Z,15.60
2019-05-21T09:59:12.381Z,15.70
2019-05-21T10:01:47.675Z,15.90
2019-05-21T10:04:13.247Z,16.00
2019-05-21T10:06:40.993Z,16.00
2019-05-21T10:09:11.388Z,16.10
2019-05-21T10:11:38.990Z,16.10
2019-05-21T10:14:07.053Z,16.10
2019-05-21T10:16:34.482Z,16.00
2019-05-21T10:19:01.858Z,16.00
2019-05-21T10:21:29.285Z,16.10
2019-05-21T10:23:56.692Z,16.00
2019-05-21T10:26:24.280Z,16.20
2019-05-21T10:28:52.354Z,16.20
2019-05-21T10:31:19.839Z,16.20
2019-05-21T10:33:47.267Z,16.10
2019-05-21T10:36:15.140Z,16.10
2019-05-21T10:38:42.538Z,16.00
2019-05-21T10:41:11.072Z,16.00
2019-05-21T10:43:38.498Z,16.00
2019-05-21T10:46:06.007Z,15.90
2019-05-21T10:48:33.415Z,15.90
2019-05-21T10:51:00.864Z,15.90
2019-05-21T10:53:31.086Z,15.90
2019-05-21T10:55:58.486Z,15.90
2019-05-21T10:58:26.198Z,15.90
2019-05-21T11:00:57.830Z,15.90
2019-05-21T11:03:47.326Z,15.90
2019-05-21T11:06:15.163Z,15.90
2019-05-21T11:08:42.554Z,15.90
2019-05-21T11:11:10.094Z,16.00
2019-05-21T11:13:39.421Z,16.10
2019-05-21T11:16:07.146Z,16.20
2019-05-21T11:18:34.562Z,16.20
2019-05-21T11:21:02.005Z,16.20
2019-05-21T11:23:29.388Z,16.20
2019-05-21T11:25:57.371Z,16.20
2019-05-21T11:28:25.031Z,16.20
2019-05-21T11:30:52.710Z,16.20
2019-05-21T11:33:20.157Z,16.20
2019-05-21T11:35:47.540Z,16.20
2019-05-21T11:38:14.936Z,16.10
2019-05-21T11:40:50.740Z,16.20
2019-05-21T11:43:21.846Z,16.20
2019-05-21T11:45:49.298Z,16.20
2019-05-21T11:48:16.718Z,16.10
2019-05-21T11:50:44.115Z,16.20
2019-05-21T11:53:12.007Z,16.20
2019-05-21T11:55:39.486Z,16.20
2019-05-21T11:58:06.875Z,16.40
2019-05-21T12:00:34.316Z,16.40
2019-05-21T12:03:01.772Z,16.50
2019-05-21T12:05:29.301Z,16.50
2019-05-21T12:07:56.898Z,16.50
2019-05-21T12:10:24.295Z,16.60
2019-05-21T12:12:51.694Z,16.60
2019-05-21T12:15:21.037Z,16.60
2019-05-21T12:17:48.335Z,16.60
2019-05-21T12:20:16.168Z,16.70
2019-05-21T12:22:43.609Z,16.60
2019-05-21T12:25:11.411Z,16.60
2019-05-21T12:27:39.326Z,16.60
2019-05-21T12:30:07.734Z,16.70
2019-05-21T12:32:35.130Z,16.80
2019-05-21T12:35:02.822Z,16.60
2019-05-21T12:37:30.533Z,16.60
2019-05-21T12:39:57.923Z,16.60
2019-05-21T12:42:25.335Z,16.70
2019-05-21T12:44:53.839Z,16.90
2019-05-21T12:47:21.223Z,17.00
2019-05-21T12:49:50.452Z,17.00
2019-05-21T12:52:17.927Z,17.10
2019-05-21T12:54:45.328Z,17.10
2019-05-21T12:57:12.728Z,17.10
2019-05-21T12:59:40.209Z,17.20
2019-05-21T13:02:07.594Z,17.20
2019-05-21T13:04:34.920Z,17.20
2019-05-21T13:07:02.433Z,17.30
2019-05-21T13:09:32.874Z,17.40
2019-05-21T13:11:59.036Z,17.50
2019-05-21T13:14:26.495Z,17.50
2019-05-21T13:16:53.906Z,17.40
2019-05-21T13:19:22.973Z,17.40
2019-05-21T13:21:50.589Z,17.30
2019-05-21T13:24:17.988Z,17.40
2019-05-21T13:26:45.392Z,17.40
2019-05-21T13:29:12.975Z,17.40
2019-05-21T13:31:40.856Z,17.20
2019-05-21T13:34:08.506Z,17.20
2019-05-21T13:36:35.971Z,17.10
2019-05-21T13:39:06.271Z,17.00
2019-05-21T13:41:33.667Z,16.90
2019-05-21T13:44:01.188Z,16.80
2019-05-21T13:46:28.571Z,16.80
2019-05-21T13:48:55.949Z,16.80
2019-05-21T13:51:23.511Z,16.80
2019-05-21T13:53:50.924Z,16.80
2019-05-21T13:56:18.320Z,16.70
2019-05-21T13:58:46.079Z,16.60
2019-05-21T14:01:16.053Z,16.50
2019-05-21T14:03:45.727Z,16.50
2019-05-21T14:06:13.503Z,16.40
2019-05-21T14:08:41.003Z,16.40
2019-05-21T14:11:08.725Z,16.40
2019-05-21T14:13:36.274Z,16.40
2019-05-21T14:16:03.897Z,16.40
2019-05-21T14:18:31.291Z,16.30
2019-05-21T14:20:58.764Z,16.30
2019-05-21T14:23:26.164Z,16.30
2019-05-21T14:25:54.862Z,16.20
2019-05-21T14:28:22.407Z,16.20
2019-05-21T14:30:50.120Z,16.10
2019-05-21T14:33:17.527Z,16.10
2019-05-21T14:35:45.297Z,16.00
2019-05-21T14:38:12.720Z,15.90
2019-05-21T14:40:40.211Z,15.90
2019-05-21T14:43:07.690Z,15.80
2019-05-21T14:45:35.089Z,15.70
2019-05-21T14:48:02.589Z,15.70
2019-05-21T14:50:30.043Z,15.60
2019-05-21T14:52:57.510Z,15.60
2019-05-21T14:55:24.903Z,15.60
2019-05-21T14:57:52.350Z,15.60
2019-05-21T15:00:32.655Z,15.70
2019-05-21T15:03:00.184Z,15.60
2019-05-21T15:05:27.593Z,15.50
2019-05-21T15:07:55.007Z,15.50
2019-05-21T15:10:22.495Z,15.30
2019-05-21T15:12:49.891Z,15.40
2019-05-21T15:15:17.297Z,15.40
2019-05-21T15:17:44.953Z,15.40
2019-05-21T15:20:23.449Z,15.50
2019-05-21T15:22:51.031Z,15.40
2019-05-21T15:25:18.453Z,15.50
2019-05-21T15:27:45.974Z,15.50
2019-05-21T15:30:14.639Z,15.40
2019-05-21T15:32:42.570Z,15.40
2019-05-21T15:35:09.991Z,15.40
2019-05-21T15:37:37.646Z,15.40
2019-05-21T15:40:05.466Z,15.40
2019-05-21T15:42:32.862Z,15.30
2019-05-21T15:45:00.452Z,15.20
2019-05-21T15:47:27.872Z,15.20
2019-05-21T15:49:55.290Z,15.10
2019-05-21T15:52:22.806Z,15.10
2019-05-21T15:54:50.208Z,15.10
2019-05-21T15:57:17.628Z,15.10
2019-05-21T15:59:45.099Z,14.90
2019-05-21T16:02:12.518Z,14.90
2019-05-21T16:04:39.943Z,14.90
2019-05-21T16:07:07.428Z,14.90
2019-05-21T16:09:36.364Z,15.00
2019-05-21T16:12:03.766Z,14.80
2019-05-21T16:14:31.248Z,14.90
2019-05-21T16:17:00.455Z,14.70
2019-05-21T16:19:27.874Z,14.70
2019-05-21T16:21:55.324Z,14.60
2019-05-21T16:24:22.727Z,14.60
2019-05-21T16:26:50.134Z,14.50
2019-05-21T16:29:17.592Z,14.60
2019-05-21T16:31:45.000Z,14.60
2019-05-21T16:34:12.599Z,14.50
2019-05-21T16:36:40.418Z,14.40
2019-05-21T16:39:08.444Z,14.50
2019-05-21T16:41:44.692Z,14.50
2019-05-21T16:44:05.466Z,14.50
2019-05-21T16:46:34.650Z,14.50
2019-05-21T16:49:02.059Z,14.40
2019-05-21T16:51:29.498Z,14.30
2019-05-21T16:53:56.897Z,14.30
2019-05-21T16:56:26.124Z,14.20
2019-05-21T16:58:53.567Z,14.10
2019-05-21T17:01:21.401Z,14.10
2019-05-21T17:03:59.437Z,14.10
2019-05-21T17:06:18.046Z,14.10
2019-05-21T17:08:45.443Z,14.00
2019-05-21T17:11:12.881Z,14.00
2019-05-21T17:13:40.349Z,14.00
2019-05-21T17:16:07.748Z,14.00
2019-05-21T17:18:35.181Z,14.00
2019-05-21T17:21:02.936Z,14.00
2019-05-21T17:23:30.346Z,13.90
2019-05-21T17:25:57.735Z,13.90
2019-05-21T17:28:25.222Z,13.90
2019-05-21T17:30:52.796Z,13.80
2019-05-21T17:33:20.985Z,13.70
2019-05-21T17:35:48.666Z,13.70
2019-05-21T17:38:16.062Z,13.70
2019-05-21T17:40:43.491Z,13.70
2019-05-21T17:43:32.645Z,13.70
2019-05-21T17:46:00.216Z,13.70
2019-05-21T17:48:27.623Z,13.70
2019-05-21T17:50:55.194Z,13.60
2019-05-21T17:53:22.605Z,13.50
2019-05-21T17:55:50.016Z,13.50
2019-05-21T17:58:17.621Z,13.40
2019-05-21T18:00:52.650Z,13.40
2019-05-21T18:03:20.099Z,13.50
2019-05-21T18:05:48.104Z,13.40
2019-05-21T18:08:17.214Z,13.40
2019-05-21T18:10:45.399Z,13.40
2019-05-21T18:13:13.199Z,13.40
2019-05-21T18:15:40.607Z,13.40
2019-05-21T18:18:08.682Z,13.40
2019-05-21T18:20:37.616Z,13.20
2019-05-21T18:23:05.754Z,13.30
2019-05-21T18:25:33.382Z,13.30
2019-05-21T18:28:02.096Z,13.30
2019-05-21T18:30:29.759Z,13.30
2019-05-21T18:32:57.559Z,13.20
2019-05-21T18:35:25.463Z,13.20
2019-05-21T18:37:53.054Z,13.30
2019-05-21T18:40:20.819Z,13.30
2019-05-21T18:42:48.480Z,13.30
2019-05-21T18:45:16.607Z,13.30
2019-05-21T18:47:44.440Z,13.30
2019-05-21T18:50:13.351Z,13.20
2019-05-21T18:52:40.810Z,13.30
2019-05-21T18:55:11.170Z,13.20
2019-05-21T18:57:38.630Z,13.20
2019-05-21T19:00:06.672Z,13.10
2019-05-21T19:02:34.110Z,13.10
2019-05-21T19:05:01.540Z,13.10
2019-05-21T19:07:28.923Z,13.20
2019-05-21T19:09:56.364Z,13.20
2019-05-21T19:12:36.882Z,13.20
2019-05-21T19:14:53.179Z,13.20
2019-05-21T19:17:34.747Z,13.10
2019-05-21T19:19:49.912Z,13.00
2019-05-21T19:22:17.257Z,13.00
2019-05-21T19:24:44.858Z,13.00
2019-05-21T19:27:12.363Z,13.00
2019-05-21T19:29:40.120Z,13.00
2019-05-21T19:32:07.866Z,13.00
2019-05-21T19:34:35.274Z,13.00
2019-05-21T19:37:02.943Z,12.90
2019-05-21T19:39:31.442Z,12.90
2019-05-21T19:41:58.950Z,12.90
2019-05-21T19:44:26.773Z,12.90
2019-05-21T19:46:54.796Z,12.80
2019-05-21T19:49:22.442Z,12.80
2019-05-21T19:51:50.093Z,12.80
2019-05-21T19:54:17.913Z,12.90
2019-05-21T19:56:45.305Z,12.80
2019-05-21T19:59:12.953Z,12.90
2019-05-21T20:01:41.023Z,12.90
2019-05-21T20:04:10.694Z,12.90
2019-05-21T20:06:38.421Z,12.90
2019-05-21T20:09:09.580Z,12.80
2019-05-21T20:11:37.107Z,12.80
2019-05-21T20:14:05.090Z,12.80
2019-05-21T20:16:33.925Z,12.80
2019-05-21T20:19:01.848Z,12.80
2019-05-21T20:21:31.540Z,12.80
2019-05-21T20:23:59.740Z,12.70
2019-05-21T20:26:29.420Z,12.60
2019-05-21T20:28:57.334Z,12.60
2019-05-21T20:31:24.803Z,12.60
2019-05-21T20:33:53.478Z,12.60
2019-05-21T20:36:21.780Z,12.60
2019-05-21T20:38:49.714Z,12.50
2019-05-21T20:41:17.836Z,12.60
2019-05-21T20:43:58.596Z,12.50
2019-05-21T20:46:17.323Z,12.40
2019-05-21T20:48:45.110Z,12.40
2019-05-21T20:51:12.712Z,12.20
2019-05-21T20:53:40.635Z,12.40
2019-05-21T20:56:08.235Z,12.40
2019-05-21T20:58:35.632Z,12.40
2019-05-21T21:01:05.017Z,12.40
2019-05-21T21:03:33.156Z,12.40
2019-05-21T21:06:01.206Z,12.40
2019-05-21T21:08:29.976Z,12.50
2019-05-21T21:10:57.388Z,12.50
2019-05-21T21:13:25.403Z,12.50
2019-05-21T21:15:52.854Z,12.50
2019-05-21T21:18:20.331Z,12.40
2019-05-21T21:20:48.462Z,12.30
2019-05-21T21:23:17.715Z,12.30
2019-05-21T21:26:05.623Z,12.30
2019-05-21T21:28:33.014Z,12.30
2019-05-21T21:31:00.421Z,12.40
2019-05-21T21:33:28.798Z,12.40
2019-05-21T21:35:56.390Z,12.40
2019-05-21T21:38:26.876Z,12.40
2019-05-21T21:40:55.166Z,12.30
2019-05-21T21:43:22.586Z,12.30
2019-05-21T21:45:51.193Z,12.30
2019-05-21T21:48:19.371Z,12.40
2019-05-21T21:50:47.668Z,12.40
2019-05-21T21:53:15.103Z,12.40
2019-05-21T21:55:42.690Z,12.40
2019-05-21T21:58:10.099Z,12.50
2019-05-21T22:01:28.143Z,12.50
2019-05-21T22:04:00.314Z,12.50
2019-05-21T22:06:29.343Z,12.40
2019-05-21T22:08:57.209Z,12.40
2019-05-21T22:11:24.602Z,12.40
2019-05-21T22:13:52.400Z,12.40
2019-05-21T22:16:21.036Z,12.40
2019-05-21T22:18:49.150Z,12.40
2019-05-21T22:21:17.069Z,12.50
2019-05-21T22:23:44.819Z,12.50
2019-05-21T22:26:12.782Z,12.40
2019-05-21T22:28:40.888Z,12.40
2019-05-21T22:31:08.284Z,12.40
2019-05-21T22:33:36.489Z,12.40
2019-05-21T22:36:04.521Z,12.30
2019-05-21T22:38:32.462Z,12.40
2019-05-21T22:40:59.917Z,12.40
2019-05-21T22:43:27.715Z,12.40
2019-05-21T22:45:55.318Z,12.40
2019-05-21T22:48:22.740Z,12.30
2019-05-21T22:50:50.306Z,12.30
2019-05-21T22:53:17.713Z,12.30
2019-05-21T22:55:45.134Z,12.30
2019-05-21T22:58:12.574Z,12.40
2019-05-21T23:00:40.194Z,12.40
2019-05-21T23:03:07.594Z,12.30
2019-05-21T23:05:35.046Z,12.40
2019-05-21T23:08:04.346Z,12.30
2019-05-21T23:10:31.758Z,12.30
2019-05-21T23:12:59.823Z,12.20
2019-05-21T23:15:27.227Z,12.30
2019-05-21T23:17:55.780Z,12.30
2019-05-21T23:20:27.138Z,12.30
2019-05-21T23:22:56.132Z,12.30
2019-05-21T23:25:23.530Z,12.20
2019-05-21T23:27:51.579Z,12.20
2019-05-21T23:30:19.168Z,12.20
2019-05-21T23:32:46.558Z,12.30
2019-05-21T23:35:15.701Z,12.30
2019-05-21T23:37:44.007Z,12.20
2019-05-21T23:40:12.210Z,12.20
2019-05-21T23:42:41.642Z,12.20
2019-05-21T23:45:10.647Z,12.20
2019-05-21T23:47:38.423Z,12.20
2019-05-21T23:50:07.348Z,12.20
2019-05-21T23:52:37.129Z,12.20
2019-05-21T23:55:05.399Z,12.20
2019-05-21T23:57:33.572Z,12.20
